Time;durP1;ratioP1;P1;durP2;ratioP2;P2;SDS_P1;SDS_P2;PMS_P1;PMS_P2;Temp;Humidity;BMP_temperature;BMP_pressure;BME280_temperature;BME280_humidity;BME280_pressure;Samples;Min_cycle;Max_cycle;Signal;HPM_P1;HPM_P2
2022/11/29 00:02:13;;;;;;;28.52;3.05;;;;;;;21.30;66.13;99333.28;7309727;19;129074;-35
2022/11/29 00:04:38;;;;;;;23.48;2.55;;;;;;;21.31;65.09;99342.75;7311196;19;129386;-37
2022/11/29 00:07:04;;;;;;;22.10;2.58;;;;;;;21.29;65.22;99336.84;7311110;19;129594;-36
2022/11/29 00:09:29;;;;;;;27.45;2.97;;;;;;;21.30;66.40;99343.72;7310928;19;128844;-34
2022/11/29 00:12:12;;;;;;;19.48;2.30;;;;;;;21.30;65.82;99346.34;7311406;19;128995;-37
2022/11/29 00:14:38;;;;;;;19.42;2.47;;;;;;;21.31;66.39;99345.38;7310344;19;129618;-38
2022/11/29 00:17:04;;;;;;;19.53;2.40;;;;;;;21.27;65.25;99344.00;7311319;19;130160;-35
2022/11/29 00:19:34;;;;;;;39.80;3.72;;;;;;;21.29;66.02;99347.28;7311129;19;129243;-34
2022/11/29 00:22:01;;;;;;;17.25;2.25;;;;;;;21.29;65.83;99342.06;7311381;19;129359;-38
2022/11/29 00:24:26;;;;;;;22.98;2.42;;;;;;;21.28;66.21;99339.59;7308039;19;129402;-37
2022/11/29 00:26:52;;;;;;;17.92;2.20;;;;;;;21.25;65.49;99330.28;7311558;19;129451;-38
2022/11/29 00:29:17;;;;;;;45.95;4.30;;;;;;;21.25;66.19;99330.28;7311204;19;129247;-38
2022/11/29 00:31:43;;;;;;;27.45;3.00;;;;;;;21.23;65.61;99332.19;7310838;19;129117;-35
2022/11/29 00:34:10;;;;;;;50.07;4.40;;;;;;;21.23;65.18;99326.97;7308299;19;129470;-35
2022/11/29 00:36:35;;;;;;;;;;;;;;;21.28;67.83;99331.75;7311819;19;129308;-38
2022/11/29 00:39:03;;;;;;;94.80;7.57;;;;;;;21.23;66.09;99332.19;7308319;19;129580;-36
2022/11/29 00:41:29;;;;;;;24.02;2.55;;;;;;;21.23;65.69;99340.03;7310214;19;129057;-37
2022/11/29 00:43:55;;;;;;;52.80;5.13;;;;;;;21.24;66.01;99335.59;7307873;19;130949;-35
2022/11/29 00:46:20;;;;;;;13.82;1.75;;;;;;;21.19;65.12;99330.81;7309272;19;129158;-37
2022/11/29 00:48:46;;;;;;;39.90;3.35;;;;;;;21.18;65.89;99334.41;7308285;19;129364;-35
2022/11/29 00:51:11;;;;;;;21.13;2.30;;;;;;;21.18;65.22;99328.34;7307528;19;128869;-34
2022/11/29 00:53:37;;;;;;;20.85;2.38;;;;;;;21.14;65.36;99327.81;7307999;19;131097;-39
2022/11/29 00:56:04;;;;;;;18.90;2.23;;;;;;;21.14;65.75;99329.63;7310851;19;129218;-37
2022/11/29 00:58:31;;;;;;;;;;;;;;;21.12;66.90;99328.94;7317607;19;129369;-35
2022/11/29 01:00:56;;;;;;;21.90;2.60;;;;;;;21.14;66.29;99333.03;7316177;19;129117;-38
2022/11/29 01:03:23;;;;;;;22.88;2.83;;;;;;;21.13;65.78;99331.41;7314532;19;130832;-37
2022/11/29 01:05:48;;;;;;;29.50;2.95;;;;;;;21.11;65.70;99333.31;7314548;19;129243;-37
2022/11/29 01:08:14;;;;;;;35.25;3.15;;;;;;;21.09;65.86;99335.25;7316375;19;129096;-39
2022/11/29 01:10:41;;;;;;;43.87;3.90;;;;;;;21.10;65.04;99336.09;7315271;19;129513;-36
2022/11/29 01:13:07;;;;;;;30.65;3.17;;;;;;;21.11;65.89;99333.31;7314159;19;129293;-37
2022/11/29 01:15:33;;;;;;;22.10;2.70;;;;;;;21.09;66.08;99330.03;7316041;19;129324;-35
2022/11/29 01:17:58;;;;;;;42.80;4.10;;;;;;;21.07;65.78;99331.97;7315561;19;129233;-36
2022/11/29 01:20:23;;;;;;;9.70;1.63;;;;;;;21.06;65.80;99335.53;7316421;19;129756;-37
2022/11/29 01:22:49;;;;;;;26.03;2.97;;;;;;;21.06;66.09;99332.09;7315431;19;129126;-36
2022/11/29 01:25:14;;;;;;;27.15;2.92;;;;;;;21.04;66.18;99331.44;7316066;19;130348;-37
2022/11/29 01:27:40;;;;;;;23.10;2.57;;;;;;;21.04;66.30;99342.69;7317584;19;128896;-38
2022/11/29 01:30:07;;;;;;;22.90;2.55;;;;;;;21.04;66.18;99342.69;7315450;19;129482;-37
2022/11/29 01:32:34;;;;;;;20.02;2.22;;;;;;;21.00;66.42;99333.50;7315944;19;129917;-36
2022/11/29 01:34:59;;;;;;;27.95;2.67;;;;;;;21.06;66.09;99340.78;7315084;19;129390;-38
2022/11/29 01:37:26;;;;;;;27.13;2.75;;;;;;;21.06;65.75;99343.38;7316965;19;129132;-37
2022/11/29 01:39:52;;;;;;;35.10;3.55;;;;;;;21.02;65.63;99347.28;7315420;19;128807;-37
2022/11/29 01:42:17;;;;;;;15.38;2.25;;;;;;;21.03;65.52;99345.47;7315266;19;129213;-36
2022/11/29 01:44:48;;;;;;;37.43;3.53;;;;;;;21.02;66.11;99334.19;7314468;19;129647;-37
2022/11/29 01:47:16;;;;;;;30.60;3.20;;;;;;;21.02;66.08;99341.22;7316801;19;129054;-34
2022/11/29 01:49:44;;;;;;;21.55;2.60;;;;;;;21.02;66.52;99328.97;7314421;19;130843;-36
2022/11/29 01:52:15;;;;;;;20.90;2.65;;;;;;;21.00;66.07;99336.13;7314385;19;131419;-37
2022/11/29 01:54:48;;;;;;;24.85;3.03;;;;;;;21.02;67.74;99338.59;7314687;19;131006;-36
2022/11/29 01:57:14;;;;;;;36.38;3.58;;;;;;;21.05;65.59;99344.38;7315567;19;129382;-36
2022/11/29 01:59:44;;;;;;;19.45;2.45;;;;;;;21.02;66.17;99338.59;7315993;19;130093;-37
2022/11/29 02:02:13;;;;;;;16.95;2.22;;;;;;;21.03;66.01;99340.22;7313998;19;129133;-38
2022/11/29 02:04:41;;;;;;;20.83;2.45;;;;;;;21.00;66.61;99341.34;7314024;19;129186;-36
2022/11/29 02:07:07;;;;;;;29.85;3.28;;;;;;;20.96;65.94;99339.94;7312381;19;129171;-36
2022/11/29 02:09:32;;;;;;;30.10;2.97;;;;;;;21.01;65.81;99347.38;7314805;19;128855;-38
2022/11/29 02:12:07;;;;;;;20.05;2.38;;;;;;;20.99;67.02;99350.13;7313566;19;130930;-39
2022/11/29 02:15:01;;;;;;;21.10;2.60;;;;;;;20.98;67.96;99351.13;7311214;19;130360;-39
2022/11/29 02:17:29;;;;;;;24.42;2.80;;;;;;;20.99;67.14;99355.38;7314104;19;129355;-38
2022/11/29 02:20:28;;;;;;;22.70;2.72;;;;;;;21.00;67.78;99351.81;7315373;19;128677;-41
2022/11/29 02:23:12;;;;;;;26.50;2.90;;;;;;;20.99;67.58;99355.38;7313289;19;129535;-38
2022/11/29 02:26:02;;;;;;;20.83;2.35;;;;;;;20.97;66.74;99356.47;7313128;19;129673;-37
2022/11/29 02:28:33;;;;;;;22.90;2.90;;;;;;;20.98;65.94;99358.13;7314490;19;129417;-39
2022/11/29 02:31:22;;;;;;;9.60;1.75;;;;;;;20.98;67.24;99358.97;7312350;19;129223;-36
2022/11/29 02:34:06;;;;;;;33.80;3.67;;;;;;;20.92;67.54;99359.50;7312288;19;129107;-38
2022/11/29 02:36:50;;;;;;;28.13;3.30;;;;;;;20.86;66.42;99352.19;7313745;19;129702;-38
2022/11/29 02:39:42;;;;;;;30.63;3.45;;;;;;;20.87;65.92;99361.72;7314356;19;129876;-38
2022/11/29 02:42:47;;;;;;;20.13;2.40;;;;;;;20.85;65.51;99350.56;7313795;19;129115;-40
2022/11/29 02:45:31;;;;;;;30.20;3.40;;;;;;;21.08;65.55;99365.00;7311898;19;130085;-35
2022/11/29 02:48:18;;;;;;;44.78;4.63;;;;;;;21.28;64.60;99377.03;7313435;19;130555;-34
2022/11/29 02:51:02;;;;;;;28.53;3.23;;;;;;;21.39;63.57;99379.47;7311063;19;129472;-37
2022/11/29 02:53:52;;;;;;;25.13;2.97;;;;;;;21.51;63.50;99373.09;7312334;19;129034;-33
2022/11/29 02:56:47;;;;;;;20.05;2.63;;;;;;;21.53;63.23;99373.78;7312665;19;129546;-36
2022/11/29 02:59:40;;;;;;;32.45;3.60;;;;;;;21.57;62.95;99377.72;7312662;19;131194;-37
2022/11/29 03:02:34;;;;;;;19.23;2.38;;;;;;;21.53;63.02;99376.41;7312760;19;129203;-39
2022/11/29 03:05:18;;;;;;;14.02;2.15;;;;;;;21.49;63.14;99380.25;7313420;19;129137;-37
2022/11/29 03:07:55;;;;;;;25.45;2.85;;;;;;;21.31;63.71;99355.81;7313268;19;130244;-36
2022/11/29 03:10:38;;;;;;;38.67;3.67;;;;;;;21.37;64.18;99376.16;7311215;19;129324;-37
2022/11/29 03:13:15;;;;;;;20.35;2.55;;;;;;;21.31;63.81;99386.38;7312616;19;129130;-37
2022/11/29 03:15:51;;;;;;;41.25;3.78;;;;;;;21.27;64.52;99379.81;7311974;19;129227;-35
2022/11/29 03:18:34;;;;;;;15.90;2.20;;;;;;;21.19;64.00;99387.53;7311812;19;129062;-37
2022/11/29 03:21:34;;;;;;;36.63;3.80;;;;;;;21.14;64.91;99376.69;7312590;19;130948;-35
2022/11/29 03:24:06;;;;;;;34.90;3.83;;;;;;;21.09;64.46;99384.13;7310554;19;129441;-36
2022/11/29 03:26:40;;;;;;;58.38;5.20;;;;;;;21.06;64.96;99381.75;7311267;19;129118;-37
2022/11/29 03:29:24;;;;;;;29.42;3.13;;;;;;;21.01;65.54;99383.97;7312988;19;128901;-38
2022/11/29 03:32:27;;;;;;;35.38;3.55;;;;;;;20.94;65.61;99382.88;7309747;19;130461;-35
2022/11/29 03:35:20;;;;;;;38.88;3.80;;;;;;;20.97;65.63;99383.47;7309351;19;129151;-37
2022/11/29 03:37:57;;;;;;;26.98;3.22;;;;;;;21.00;65.05;99398.00;7312701;19;129653;-38
2022/11/29 03:40:53;;;;;;;37.78;3.63;;;;;;;21.23;64.82;99392.31;7312322;19;130354;-38
2022/11/29 03:43:29;;;;;;;31.08;3.38;;;;;;;21.57;63.12;99396.03;7310430;19;129754;-37
2022/11/29 03:45:59;;;;;;;35.95;3.72;;;;;;;21.91;62.38;99397.13;7310885;19;129421;-38
2022/11/29 03:49:02;;;;;;;21.10;2.55;;;;;;;22.28;61.22;99401.47;7312475;19;130437;-36
2022/11/29 03:51:46;;;;;;;41.05;3.95;;;;;;;22.54;60.67;99389.31;7304889;19;130882;-38
2022/11/29 03:54:20;;;;;;;26.55;2.80;;;;;;;22.71;59.92;99391.91;7309078;19;130284;-37
2022/11/29 03:56:46;;;;;;;17.80;2.60;;;;;;;22.86;59.76;99394.78;7312198;19;129011;-37
2022/11/29 03:59:20;;;;;;;21.17;2.55;;;;;;;22.91;59.19;99406.47;7312510;19;129910;-35
2022/11/29 04:02:30;;;;;;;42.90;4.15;;;;;;;23.05;58.97;99398.06;7309770;19;129079;-36
2022/11/29 04:05:04;;;;;;;5.85;1.75;;;;;;;23.11;59.01;99399.25;7308710;19;129291;-37
2022/11/29 04:07:59;;;;;;;15.57;2.35;;;;;;;23.11;58.90;99400.06;7311705;19;129276;-37
2022/11/29 04:10:33;;;;;;;26.55;3.10;;;;;;;23.15;58.00;99395.34;7310003;19;128805;-36
2022/11/29 04:13:14;;;;;;;18.55;2.33;;;;;;;23.14;58.04;99396.31;7309838;19;129696;-37
2022/11/29 04:16:09;;;;;;;15.50;2.20;;;;;;;23.01;58.21;99381.00;7309400;19;129732;-36
2022/11/29 04:19:02;;;;;;;25.50;3.13;;;;;;;22.99;58.10;99377.69;7309754;19;129267;-37
2022/11/29 04:21:58;;;;;;;18.23;2.33;;;;;;;23.05;58.64;99400.69;7310416;19;129261;-35
2022/11/29 04:24:26;;;;;;;6.95;1.80;;;;;;;22.93;59.13;99407.16;7307373;19;129208;-34
2022/11/29 04:27:24;;;;;;;14.85;2.38;;;;;;;22.93;58.96;99411.56;7310085;19;129215;-38
2022/11/29 04:29:49;;;;;;;28.50;3.22;;;;;;;22.80;59.73;99405.91;7310117;19;128979;-36
2022/11/29 04:32:57;;;;;;;31.63;3.33;;;;;;;22.65;59.53;99410.03;7316217;19;128832;-36
2022/11/29 04:35:41;;;;;;;24.00;2.85;;;;;;;22.53;59.86;99414.69;7317288;19;129643;-36
2022/11/29 04:38:22;;;;;;;20.00;2.53;;;;;;;22.46;60.48;99413.59;7314754;19;130484;-37
2022/11/29 04:41:09;;;;;;;11.20;2.00;;;;;;;22.34;61.17;99413.97;7317187;19;129882;-38
2022/11/29 04:44:02;;;;;;;28.50;3.15;;;;;;;22.26;61.14;99427.81;7315661;19;129075;-34
2022/11/29 04:46:52;;;;;;;7.90;1.85;;;;;;;22.16;61.66;99423.59;7315606;19;129246;-35
2022/11/29 04:49:23;;;;;;;19.70;2.63;;;;;;;22.09;61.99;99425.16;7318075;19;130468;-35
2022/11/29 04:52:01;;;;;;;50.15;4.75;;;;;;;22.00;61.77;99426.06;7312595;19;129005;-35
2022/11/29 04:54:58;;;;;;;38.63;3.70;;;;;;;21.91;62.07;99422.50;7314563;19;129276;-38
2022/11/29 04:57:43;;;;;;;36.97;3.65;;;;;;;21.81;62.50;99422.56;7316033;19;129191;-36
2022/11/29 05:00:14;;;;;;;45.10;4.47;;;;;;;21.75;63.25;99427.53;7315432;19;129552;-35
2022/11/29 05:02:47;;;;;;;85.57;7.65;;;;;;;21.68;63.35;99422.00;7312383;19;130064;-37
2022/11/29 05:05:21;;;;;;;27.63;3.15;;;;;;;21.65;63.45;99432.78;7314580;19;131226;-34
2022/11/29 05:08:04;;;;;;;42.05;4.30;;;;;;;21.56;63.75;99427.59;7313151;19;130675;-37
2022/11/29 05:10:51;;;;;;;38.17;4.18;;;;;;;21.47;63.68;99429.25;7315300;19;130311;-36
2022/11/29 05:13:34;;;;;;;40.83;4.22;;;;;;;21.47;63.85;99434.50;7313706;19;129054;-35
2022/11/29 05:16:14;;;;;;;23.40;3.03;;;;;;;21.39;64.09;99429.16;7315720;19;129381;-34
2022/11/29 05:18:48;;;;;;;23.27;2.90;;;;;;;21.37;64.59;99438.94;7312663;19;132466;-35
2022/11/29 05:21:32;;;;;;;22.50;2.75;;;;;;;21.37;64.12;99438.13;7313044;19;130655;-37
2022/11/29 05:24:16;;;;;;;56.30;5.25;;;;;;;21.36;64.22;99436.47;7312458;19;129082;-36
2022/11/29 05:27:00;;;;;;;37.63;3.78;;;;;;;21.33;65.18;99440.19;7314217;19;129501;-35
2022/11/29 05:29:55;;;;;;;32.08;3.20;;;;;;;21.34;64.58;99439.22;7315695;19;130180;-35
2022/11/29 05:32:27;;;;;;;27.08;2.78;;;;;;;21.31;64.47;99444.72;7312607;19;130366;-38
2022/11/29 05:35:18;;;;;;;26.15;2.92;;;;;;;21.30;65.00;99443.09;7314265;19;130000;-34
2022/11/29 05:37:49;;;;;;;23.90;2.65;;;;;;;21.30;64.74;99448.31;7315004;19;129582;-35
2022/11/29 05:40:29;;;;;;;27.27;3.28;;;;;;;21.18;64.95;99438.97;7314625;19;129505;-35
2022/11/29 05:43:00;;;;;;;31.95;3.50;;;;;;;21.24;64.79;99450.66;7309855;19;130992;-37
2022/11/29 05:45:32;;;;;;;32.03;3.58;;;;;;;21.24;64.34;99454.09;7313320;19;128860;-37
2022/11/29 05:48:12;;;;;;;32.08;3.55;;;;;;;21.28;64.47;99460.72;7313027;19;129508;-36
2022/11/29 05:50:48;;;;;;;17.52;2.47;;;;;;;21.26;64.47;99438.25;7311528;19;131035;-35
2022/11/29 05:53:35;;;;;;;33.08;3.40;;;;;;;21.44;64.23;99454.88;7313722;19;129845;-35
2022/11/29 05:56:23;;;;;;;34.17;3.45;;;;;;;21.54;63.44;99451.28;7315520;19;129153;-35
2022/11/29 05:59:12;;;;;;;36.70;3.80;;;;;;;21.59;63.76;99459.53;7315327;19;129431;-37
2022/11/29 06:02:02;;;;;;;87.93;7.47;;;;;;;21.71;62.72;99461.00;7312096;19;129197;-37
2022/11/29 06:04:47;;;;;;;38.88;3.75;;;;;;;21.74;62.69;99454.63;7309698;19;131013;-37
2022/11/29 06:07:21;;;;;;;62.85;5.28;;;;;;;21.94;62.53;99464.94;7308242;19;130605;-38
2022/11/29 06:09:55;;;;;;;64.63;5.82;;;;;;;22.02;62.49;99471.22;7309187;19;130613;-35
2022/11/29 06:12:23;;;;;;;25.70;3.00;;;;;;;22.06;61.94;99467.34;7310680;19;130239;-37
2022/11/29 06:14:51;;;;;;;27.10;2.95;;;;;;;22.03;61.40;99457.16;7311602;19;130846;-38
2022/11/29 06:17:47;;;;;;;38.13;3.92;;;;;;;22.13;61.54;99473.66;7312933;19;129043;-36
2022/11/29 06:20:40;;;;;;;18.85;2.60;;;;;;;22.07;61.53;99484.69;7314302;19;129357;-37
2022/11/29 06:23:22;;;;;;;27.42;3.08;;;;;;;22.09;61.54;99480.13;7311923;19;130231;-40
2022/11/29 06:26:09;;;;;;;21.85;2.42;;;;;;;22.02;62.08;99481.69;7309514;19;130427;-37
2022/11/29 06:28:50;;;;;;;16.00;2.28;;;;;;;21.96;61.80;99486.53;7314291;19;129175;-37
2022/11/29 06:31:31;;;;;;;19.75;2.50;;;;;;;21.93;62.00;99488.63;7312579;19;128850;-37
2022/11/29 06:34:08;;;;;;;59.45;6.00;;;;;;;21.90;62.46;99487.09;7311311;19;129072;-36
2022/11/29 06:37:00;;;;;;;36.22;3.50;;;;;;;21.92;62.27;99498.28;7312928;19;129343;-36
2022/11/29 06:39:26;;;;;;;54.75;4.72;;;;;;;21.95;62.06;99497.97;7315114;19;129405;-37
2022/11/29 06:41:52;;;;;;;36.13;3.63;;;;;;;21.98;62.58;99497.69;7314216;19;129908;-34
2022/11/29 06:44:17;;;;;;;28.85;3.38;;;;;;;22.02;62.40;99497.38;7310387;19;130913;-37
2022/11/29 06:47:07;;;;;;;22.65;2.70;;;;;;;22.02;62.30;99508.69;7312626;19;129318;-37
2022/11/29 06:49:37;;;;;;;38.75;3.80;;;;;;;22.05;61.80;99503.16;7314294;19;129077;-36
2022/11/29 06:52:29;;;;;;;22.65;2.75;;;;;;;22.07;62.03;99505.63;7312089;19;128938;-37
2022/11/29 06:55:00;;;;;;;26.92;3.05;;;;;;;22.12;61.33;99509.47;7311018;19;129689;-35
2022/11/29 06:57:50;;;;;;;34.38;3.53;;;;;;;22.12;61.51;99508.63;7313557;19;129210;-37
2022/11/29 07:00:25;;;;;;;67.85;5.82;;;;;;;22.11;61.45;99507.84;7310067;19;129948;-36
2022/11/29 07:03:10;;;;;;;30.38;2.97;;;;;;;22.15;61.65;99514.41;7312004;19;128885;-35
2022/11/29 07:05:36;;;;;;;11.38;1.90;;;;;;;22.14;61.79;99514.56;7313049;19;130924;-37
2022/11/29 07:08:22;;;;;;;73.72;6.20;;;;;;;22.10;61.94;99518.47;7308632;19;130652;-35
2022/11/29 07:10:52;;;;;;;19.02;2.58;;;;;;;22.05;62.22;99510.22;7312401;19;129098;-37
2022/11/29 07:13:19;;;;;;;29.70;3.08;;;;;;;21.92;62.36;99505.28;7310035;19;129411;-38
2022/11/29 07:16:09;;;;;;;43.67;3.92;;;;;;;21.97;61.99;99524.00;7309334;19;130965;-37
2022/11/29 07:18:37;;;;;;;35.47;3.60;;;;;;;21.89;62.18;99521.28;7310157;19;129317;-37
2022/11/29 07:21:32;;;;;;;34.10;3.55;;;;;;;21.80;62.60;99529.97;7310472;19;129543;-37
2022/11/29 07:24:38;;;;;;;96.57;8.52;;;;;;;21.78;63.10;99527.50;7302738;19;130551;-37
2022/11/29 07:27:30;;;;;;;19.25;2.42;;;;;;;21.72;63.24;99537.69;7312618;19;129175;-35
2022/11/29 07:30:11;;;;;;;83.22;6.95;;;;;;;21.74;63.28;99536.59;7306143;19;130777;-35
2022/11/29 07:33:10;;;;;;;25.25;3.13;;;;;;;21.70;62.64;99543.06;7310423;19;129072;-34
2022/11/29 07:36:00;;;;;;;24.92;3.22;;;;;;;21.69;62.91;99546.66;7308773;19;130173;-36
2022/11/29 07:38:43;;;;;;;34.03;3.60;;;;;;;21.66;63.55;99540.88;7310909;19;130280;-39
2022/11/29 07:41:37;;;;;;;17.63;2.58;;;;;;;21.65;62.96;99547.09;7308552;19;130423;-35
2022/11/29 07:44:23;;;;;;;49.45;4.63;;;;;;;21.65;63.39;99553.13;7307755;19;129054;-38
2022/11/29 07:46:49;;;;;;;34.65;3.63;;;;;;;21.65;62.95;99552.31;7309967;19;129928;-39
2022/11/29 07:49:14;;;;;;;31.77;3.10;;;;;;;21.63;63.09;99555.09;7308811;19;129096;-37
2022/11/29 07:51:40;;;;;;;22.27;2.77;;;;;;;21.66;63.65;99553.97;7308290;19;129259;-34
2022/11/29 07:54:05;;;;;;;25.23;2.83;;;;;;;21.64;63.44;99561.94;7308088;19;130203;-35
2022/11/29 07:56:30;;;;;;;21.63;2.50;;;;;;;21.62;63.44;99561.25;7310456;19;129536;-38
2022/11/29 07:58:56;;;;;;;24.35;2.92;;;;;;;21.57;63.90;99555.63;7309836;19;129161;-36
2022/11/29 08:01:21;;;;;;;35.67;3.88;;;;;;;21.54;63.23;99561.13;7309274;19;129646;-36
2022/11/29 08:03:46;;;;;;;22.55;2.63;;;;;;;21.55;63.92;99562.78;7311671;19;129635;-36
2022/11/29 08:06:12;;;;;;;16.65;2.28;;;;;;;21.51;63.87;99560.59;7317422;19;129377;-37
2022/11/29 08:08:37;;;;;;;29.27;3.20;;;;;;;21.50;64.29;99564.97;7317885;19;130151;-38
2022/11/29 08:11:11;;;;;;;20.13;2.50;;;;;;;21.46;63.86;99568.03;7317080;19;129627;-38
2022/11/29 08:13:36;;;;;;;29.65;3.22;;;;;;;21.45;64.10;99558.53;7315307;19;129520;-34
2022/11/29 08:16:02;;;;;;;57.35;5.60;;;;;;;21.46;63.70;99566.25;7301205;19;131038;-35
2022/11/29 08:18:27;;;;;;;32.93;3.57;;;;;;;21.45;64.14;99566.38;7314667;19;129450;-36
2022/11/29 08:20:52;;;;;;;34.63;3.78;;;;;;;21.43;63.77;99563.91;7315648;19;129235;-35
2022/11/29 08:23:18;;;;;;;29.42;3.45;;;;;;;21.43;63.86;99568.31;7315442;19;129676;-35
2022/11/29 08:25:44;;;;;;;45.63;6.40;;;;;;;21.45;59.38;99571.63;7315309;19;129387;-37
2022/11/29 08:28:10;;;;;;;48.67;7.68;;;;;;;21.25;56.58;99569.97;7315935;19;131317;-37
2022/11/29 08:30:36;;;;;;;33.88;7.57;;;;;;;21.20;54.75;99567.78;7313425;19;132249;-35
2022/11/29 08:33:01;;;;;;;29.48;7.20;;;;;;;21.16;55.24;99566.41;7312170;19;129796;-37
2022/11/29 08:35:26;;;;;;;42.90;7.85;;;;;;;21.22;57.96;99565.03;7315294;19;130606;-39
2022/11/29 08:37:53;;;;;;;44.75;7.53;;;;;;;21.12;59.01;99554.53;7316886;19;129315;-34
2022/11/29 08:40:19;;;;;;;44.20;6.85;;;;;;;21.33;60.25;99563.09;7316171;19;129593;-37
2022/11/29 08:42:44;;;;;;;25.73;5.88;;;;;;;21.42;60.58;99571.91;7311770;19;129291;-38
2022/11/29 08:45:10;;;;;;;46.03;7.07;;;;;;;21.44;60.77;99576.00;7316112;19;129968;-34
2022/11/29 08:47:37;;;;;;;45.73;6.70;;;;;;;21.49;60.66;99567.75;7315674;19;130179;-35
2022/11/29 08:50:11;;;;;;;;;;;;;;;21.36;60.70;99562.81;7319131;19;129296;-38
2022/11/29 08:55:31;;;;;;;31.40;5.53;;;;;;;21.54;61.03;99578.63;7317034;19;129494;-37
2022/11/29 08:58:08;;;;;;;88.60;9.90;;;;;;;21.60;61.43;99581.50;7312192;19;131628;-39
2022/11/29 09:00:34;;;;;;;34.13;5.65;;;;;;;21.64;61.10;99572.41;7314974;19;131273;-35
2022/11/29 09:05:45;;;;;;;37.80;5.85;;;;;;;21.82;60.61;99586.47;7314212;19;130432;-37
2022/11/29 09:08:10;;;;;;;27.50;4.80;;;;;;;21.84;60.76;99592.38;7312707;19;129117;-39
2022/11/29 09:10:38;;;;;;;49.50;7.00;;;;;;;21.89;60.48;99598.03;7315382;19;130323;-37
2022/11/29 09:13:03;;;;;;;28.10;5.10;;;;;;;22.00;60.67;99597.00;7315464;19;129161;-37
2022/11/29 09:15:29;;;;;;;16.75;4.15;;;;;;;21.98;60.41;99574.56;7314698;19;129351;-35
2022/11/29 09:17:54;;;;;;;22.60;4.22;;;;;;;22.18;60.29;99602.34;7315049;19;129038;-36
2022/11/29 09:20:20;;;;;;;64.80;7.53;;;;;;;22.22;59.87;99603.69;7307340;19;129802;-36
2022/11/29 09:22:45;;;;;;;40.25;6.32;;;;;;;22.25;60.22;99598.16;7302911;19;131371;-38
2022/11/29 09:25:10;;;;;;;36.10;5.20;;;;;;;22.33;59.42;99600.91;7311011;19;130021;-35
2022/11/29 09:27:36;;;;;;;22.35;4.20;;;;;;;22.26;60.17;99605.06;7315380;19;130386;-35
2022/11/29 09:30:01;;;;;;;31.53;5.07;;;;;;;22.27;59.91;99607.53;7315288;19;131186;-39
2022/11/29 09:32:26;;;;;;;40.28;5.80;;;;;;;22.20;59.78;99605.63;7310981;19;129183;-37
2022/11/29 09:34:52;;;;;;;28.08;4.93;;;;;;;22.14;60.40;99596.56;7316072;19;129306;-37
2022/11/29 09:37:17;;;;;;;29.30;5.22;;;;;;;22.12;60.40;99605.53;7314967;19;129547;-35
2022/11/29 09:39:42;;;;;;;22.40;4.63;;;;;;;22.07;60.54;99600.72;7316274;19;129260;-37
2022/11/29 09:42:21;;;;;;;17.37;3.70;;;;;;;22.01;61.03;99605.69;7315883;19;129288;-37
2022/11/29 09:45:00;;;;;;;50.00;6.38;;;;;;;21.98;61.07;99602.38;7313963;19;129278;-37
2022/11/29 09:47:56;;;;;;;21.58;4.55;;;;;;;21.94;61.17;99605.44;7316000;19;129068;-35
2022/11/29 09:50:39;;;;;;;36.47;5.05;;;;;;;21.93;61.55;99609.03;7315211;19;130483;-35
2022/11/29 09:53:24;;;;;;;25.42;4.38;;;;;;;21.91;61.07;99616.19;7314860;19;129388;-38
2022/11/29 09:56:28;;;;;;;27.17;4.28;;;;;;;21.94;60.94;99606.28;7314874;19;129388;-36
2022/11/29 09:59:03;;;;;;;37.25;4.90;;;;;;;21.98;61.28;99601.59;7313024;19;129464;-34
2022/11/29 10:01:35;;;;;;;32.42;4.85;;;;;;;21.94;61.45;99608.91;7292835;19;130467;-37
2022/11/29 10:04:04;;;;;;;47.85;6.60;;;;;;;21.96;61.42;99609.56;7311783;19;128989;-37
2022/11/29 10:06:42;;;;;;;35.05;5.25;;;;;;;21.96;61.33;99616.59;7311387;19;129220;-38
2022/11/29 10:09:44;;;;;;;26.08;4.15;;;;;;;21.93;61.38;99609.84;7314571;19;130334;-37
2022/11/29 10:12:18;;;;;;;27.63;4.35;;;;;;;21.94;61.39;99606.28;7309602;19;130584;-36
2022/11/29 10:15:03;;;;;;;39.92;5.43;;;;;;;21.94;61.17;99611.50;7309854;19;129377;-35
2022/11/29 10:17:33;;;;;;;41.10;6.20;;;;;;;21.90;61.41;99610.13;7312382;19;129858;-37
2022/11/29 10:20:19;;;;;;;42.00;5.53;;;;;;;21.83;61.76;99609.03;7311335;19;130350;-38
2022/11/29 10:22:54;;;;;;;60.13;7.10;;;;;;;21.77;62.28;99617.47;7308171;19;130319;-38
2022/11/29 10:25:24;;;;;;;49.45;6.10;;;;;;;21.77;62.11;99611.38;7305833;19;130818;-37
2022/11/29 10:27:50;;;;;;;67.70;7.32;;;;;;;21.67;62.35;99607.94;7298327;19;129676;-37
2022/11/29 10:30:16;;;;;;;34.63;5.23;;;;;;;21.66;62.87;99607.13;7302709;19;131108;-36
2022/11/29 10:32:45;;;;;;;32.50;4.67;;;;;;;21.63;62.97;99607.41;7308668;19;129430;-35
2022/11/29 10:35:16;;;;;;;41.40;5.00;;;;;;;21.62;62.59;99616.19;7307666;19;130066;-35
2022/11/29 10:37:42;;;;;;;34.33;5.10;;;;;;;21.55;62.90;99609.88;7311075;19;130622;-38
2022/11/29 10:40:15;;;;;;;23.00;4.10;;;;;;;21.53;63.12;99611.81;7310841;19;130080;-38
2022/11/29 10:42:53;;;;;;;22.65;3.83;;;;;;;21.53;62.90;99609.19;7311879;19;130382;-35
2022/11/29 10:45:24;;;;;;;12.15;3.45;;;;;;;21.54;62.93;99621.31;7311665;19;130032;-38
2022/11/29 10:47:52;;;;;;;43.28;5.38;;;;;;;21.54;63.00;99623.91;7312067;19;129497;-36
2022/11/29 10:50:29;;;;;;;56.38;5.97;;;;;;;21.46;63.49;99610.72;7310126;19;130148;-36
2022/11/29 10:53:11;;;;;;;44.55;6.05;;;;;;;21.50;63.55;99612.06;7307290;19;129733;-38
2022/11/29 10:55:46;;;;;;;38.05;5.45;;;;;;;21.49;62.94;99607.81;7310764;19;128835;-39
2022/11/29 10:58:18;;;;;;;17.77;4.15;;;;;;;21.48;63.24;99608.78;7310500;19;129457;-37
2022/11/29 11:00:55;;;;;;;33.47;4.97;;;;;;;21.47;63.40;99614.16;7305658;19;130835;-36
2022/11/29 11:03:28;;;;;;;38.15;5.13;;;;;;;21.48;63.50;99621.88;7306449;19;130461;-37
2022/11/29 11:06:05;;;;;;;93.88;10.23;;;;;;;21.45;63.76;99619.50;7305608;19;131140;-38
2022/11/29 11:08:32;;;;;;;45.55;5.82;;;;;;;21.51;63.48;99623.38;7310867;19;129165;-35
2022/11/29 11:10:58;;;;;;;27.23;4.45;;;;;;;21.47;63.30;99614.97;7309626;19;131089;-40
2022/11/29 11:13:27;;;;;;;27.10;4.40;;;;;;;21.46;63.42;99621.19;7305036;19;130414;-36
2022/11/29 11:16:05;;;;;;;50.28;5.70;;;;;;;21.42;64.02;99618.97;7300309;19;130768;-38
2022/11/29 11:18:31;;;;;;;94.32;9.20;;;;;;;21.42;64.09;99618.97;7303886;19;129393;-39
2022/11/29 11:20:59;;;;;;;25.80;4.18;;;;;;;21.39;63.48;99614.84;7303151;19;129345;-37
2022/11/29 11:23:29;;;;;;;32.85;4.57;;;;;;;21.32;64.21;99618.97;7307708;19;130317;-38
2022/11/29 11:26:01;;;;;;;42.38;5.63;;;;;;;21.37;64.17;99622.00;7300092;19;130602;-35
2022/11/29 11:28:31;;;;;;;48.30;5.38;;;;;;;21.34;63.52;99622.25;7307102;19;129349;-37
2022/11/29 11:31:00;;;;;;;47.15;5.32;;;;;;;21.34;64.32;99627.50;7307726;19;129547;-35
2022/11/29 11:33:27;;;;;;;56.22;6.05;;;;;;;21.37;63.85;99622.00;7305147;19;130357;-38
2022/11/29 11:36:06;;;;;;;24.25;3.67;;;;;;;21.39;64.03;99619.22;7310072;19;129206;-38
2022/11/29 11:38:37;;;;;;;27.58;4.25;;;;;;;21.43;63.42;99631.09;7310822;19;128921;-36
2022/11/29 11:42:35;;;;;;;34.75;4.45;;;;;;;21.43;63.48;99631.91;7310353;19;129398;-36
2022/11/29 11:44:19;;;;;;;16.17;3.42;;;;;;;21.45;63.91;99624.75;7308481;19;130310;-40
2022/11/29 11:46:48;;;;;;;14.70;3.20;;;;;;;21.47;63.60;99627.25;7312958;19;128959;-36
2022/11/29 11:49:35;;;;;;;40.67;4.75;;;;;;;21.50;63.18;99622.53;7311976;19;129961;-39
2022/11/29 11:52:03;;;;;;;35.83;4.70;;;;;;;21.51;63.61;99629.44;7308591;19;130348;-36
2022/11/29 11:54:30;;;;;;;18.00;3.35;;;;;;;21.44;63.30;99612.63;7309066;19;130399;-37
2022/11/29 11:56:55;;;;;;;29.83;4.25;;;;;;;21.46;63.44;99626.41;7311226;19;128892;-39
2022/11/29 11:59:25;;;;;;;20.77;3.70;;;;;;;21.50;64.06;99630.38;7311812;19;129339;-38
2022/11/29 12:01:51;;;;;;;27.67;3.75;;;;;;;21.47;63.82;99633.28;7311685;19;129156;-39